Berlin — 9HA2295 — position and weather

sailwx.info

Track history (hours):
 
Tides and Currents Weather Stations Pressure Air Temp Water Temp Dewpoint Dewpoint Depression Visibility Wind Speed Wind Dir Waves Ship Positions

Berlin

Last reported at 2017-Nov-25 01:55 UTC. Time now 2017-Nov-25 04:07 UTC.
Position N 36°18' E 013°50'.

Length 140 m; draft 5 m.

Type: Ship. MMSI: 248277000.

Date/timePositionNaut miles runAvg speedWind from/ knotsBaromVisibWave heightAir tempDewpointWater temp
2017-Nov-25 01:55N 36°18' E 013°50'615.0
2017-Nov-25 01:30N 36°16' E 013°57'714.9
2017-Nov-25 01:00N 36°12' E 014°05'714.9
2017-Nov-25 00:30N 36°09' E 014°14'714.8
2017-Nov-25 00:00N 36°06' E 014°22'815.0
2017-Nov-24 23:30N 36°01' E 014°29'612.7
2017-Nov-24 23:00N 35°55' E 014°33'2 0.1
2017-Nov-24 07:39N 35°54' E 014°31'1 8.4
2017-Nov-24 07:30N 35°55' E 014°32'5 9.7
2017-Nov-24 07:00N 35°58' E 014°37'510.5
2017-Nov-24 06:30N 36°02' E 014°41'31912.9
2017-Nov-23 05:45N 40°27' E 018°26'2415.7
2017-Nov-23 04:13N 40°46' E 018°06'415.4
2017-Nov-23 03:57N 40°50' E 018°03'  
Track history (hours):
 
Tides and Currents Weather Stations Pressure Air Temp Water Temp Dewpoint Dewpoint Depression Visibility Wind Speed Wind Dir Waves Ship Positions

Berlin

Last reported at 2017-Nov-25 01:55 UTC. Time now 2017-Nov-25 04:07 UTC.
Position N 36°18' E 013°50'.

Length 140 m; draft 5 m.

Type: Ship. MMSI: 248277000.

Date/timePositionNaut miles runAvg speedWind from/ knotsBaromVisibWave heightAir tempDewpointWater temp
2017-Nov-25 01:55N 36°18' E 013°50'615.0
2017-Nov-25 01:30N 36°16' E 013°57'714.9
2017-Nov-25 01:00N 36°12' E 014°05'714.9
2017-Nov-25 00:30N 36°09' E 014°14'714.8
2017-Nov-25 00:00N 36°06' E 014°22'815.0
2017-Nov-24 23:30N 36°01' E 014°29'612.7
2017-Nov-24 23:00N 35°55' E 014°33'2 0.1
2017-Nov-24 07:39N 35°54' E 014°31'1 8.4
2017-Nov-24 07:30N 35°55' E 014°32'5 9.7
2017-Nov-24 07:00N 35°58' E 014°37'510.5
2017-Nov-24 06:30N 36°02' E 014°41'31912.9
2017-Nov-23 05:45N 40°27' E 018°26'2415.7
2017-Nov-23 04:13N 40°46' E 018°06'415.4
2017-Nov-23 03:57N 40°50' E 018°03'  

Dump ship's entire track history